Time;durP1;ratioP1;P1;durP2;ratioP2;P2;SDS_P1;SDS_P2;PMS_P1;PMS_P2;Temp;Humidity;BMP_temperature;BMP_pressure;BME280_temperature;BME280_humidity;BME280_pressure;Samples;Min_cycle;Max_cycle;Signal;HPM_P1;HPM_P2
2023/09/09 00:01:06;;;;;;;;;;;25.40;74.50;;;25.58;47.63;98699.63;4943582;28;113366;-81
2023/09/09 00:03:32;;;;;;;;;;;25.40;74.60;;;25.54;47.26;98702.44;4933999;28;113802;-80
2023/09/09 00:05:58;;;;;;;;;;;25.40;74.80;;;25.51;47.35;98705.31;4933539;28;124329;-80
2023/09/09 00:08:31;;;;;;;;;;;25.40;74.90;;;25.49;47.64;98696.44;4943287;28;123963;-81
2023/09/09 00:10:57;;;;;;;;;;;25.30;75.00;;;25.48;47.35;98700.50;4957841;28;114258;-81
2023/09/09 00:13:29;;;;;;;;;;;25.30;75.20;;;25.44;47.40;98694.88;4962394;28;112781;-81
2023/09/09 00:15:56;;;;;;;;;;;25.30;75.30;;;25.40;47.36;98693.28;4940277;28;124674;-78
2023/09/09 00:18:22;;;;;;;;;;;25.20;75.30;;;25.39;47.80;98691.66;4918669;28;123904;-78
2023/09/09 00:20:57;;;;;;;;;;;25.20;75.50;;;25.35;47.47;98700.19;4910645;28;113421;-77
2023/09/09 00:23:24;;;;;;;;;;;25.10;75.50;;;25.33;47.57;98699.78;4915575;28;113830;-78
2023/09/09 00:25:52;;;;;;;;;;;25.10;75.60;;;25.30;47.97;98698.59;4941512;28;124019;-78
2023/09/09 00:28:20;;;;;;;;;;;25.10;75.80;;;25.28;47.78;98703.03;4949534;28;124000;-78
2023/09/09 00:30:46;;;;;;;;;;;25.10;76.00;;;25.26;47.77;98706.31;4930297;28;113619;-78
2023/09/09 00:33:22;;;;;;;;;;;25.10;76.10;;;25.23;47.78;98697.84;4956428;28;113465;-77
2023/09/09 00:35:50;;;;;;;;;;;25.00;76.30;;;25.20;48.03;98702.31;4929267;28;123491;-78
2023/09/09 00:38:17;;;;;;;;;;;25.00;76.50;;;25.17;47.97;98702.31;4942579;28;123797;-78
2023/09/09 00:41:17;;;;;;;;;;;24.90;76.50;;;25.11;47.93;98705.53;4937220;28;114671;-78
2023/09/09 00:43:46;;;;;;;;;;;24.90;76.70;;;25.09;48.23;98707.16;4926103;28;114915;-78
2023/09/09 00:46:17;;;;;;;;;;;24.90;76.80;;;25.07;48.33;98699.13;4959394;28;124639;-78
2023/09/09 00:48:44;;;;;;;;;;;24.90;77.00;;;25.04;48.15;98697.13;4913304;28;123019;-78
2023/09/09 00:51:18;;;;;;;;;;;24.80;77.10;;;25.03;48.34;98703.97;4952076;28;114431;-78
2023/09/09 00:53:45;;;;;;;;;;;24.80;77.20;;;25.00;48.33;98696.31;4951770;28;113115;-78
2023/09/09 00:56:11;;;;;;;;;;;24.80;77.40;;;24.97;48.77;98699.97;4934133;28;124805;-78
2023/09/09 00:58:40;;;;;;;;;;;24.70;77.60;;;24.95;48.58;98696.75;4957127;28;123428;-77
2023/09/09 01:01:09;;;;;;;;;;;24.70;77.80;;;24.90;48.63;98697.19;4950777;28;114419;-78
2023/09/09 01:03:36;;;;;;;;;;;24.70;77.90;;;24.86;48.82;98691.56;4931279;28;113888;-78
2023/09/09 01:06:05;;;;;;;;;;;24.60;78.00;;;24.83;49.26;98694.41;4949639;28;124499;-78
2023/09/09 01:08:32;;;;;;;;;;;24.60;78.30;;;24.80;49.08;98698.06;4941928;28;123663;-77
2023/09/09 01:10:58;;;;;;;;;;;24.60;78.40;;;24.77;49.46;98690.38;4948156;28;114815;-78
2023/09/09 01:13:31;;;;;;;;;;;24.60;78.70;;;24.76;49.16;98700.09;4936538;28;114465;-78
2023/09/09 01:15:57;;;;;;;;;;;24.50;78.80;;;24.74;49.50;98694.03;4923592;28;124298;-77
2023/09/09 01:18:24;;;;;;;;;;;24.50;79.10;;;24.71;49.41;98697.69;4943591;28;123666;-78
2023/09/09 01:21:12;;;;;;;;;;;24.50;79.40;;;24.66;49.94;98696.06;4922774;28;114410;-78
2023/09/09 01:23:39;;;;;;;;;;;24.50;79.80;;;24.63;50.02;98703.34;4935144;28;113669;-78
2023/09/09 01:26:05;;;;;;;;;;;24.40;80.00;;;24.62;50.12;98703.78;4945459;28;124208;-78
2023/09/09 01:28:33;;;;;;;;;;;24.40;80.50;;;24.59;50.53;98705.41;4943418;28;125046;-78
2023/09/09 01:31:02;;;;;;;;;;;24.30;80.80;;;24.57;50.69;98707.81;4946879;28;115635;-78
2023/09/09 01:33:28;;;;;;;;;;;24.30;81.00;;;24.56;50.63;98699.78;4915282;28;113885;-77
2023/09/09 01:35:57;;;;;;;;;;;24.30;81.40;;;24.53;50.70;98709.88;4940012;28;124642;-78
2023/09/09 01:38:24;;;;;;;;;;;24.30;81.70;;;24.53;50.79;98700.56;4944460;28;124720;-78
2023/09/09 01:40:50;;;;;;;;;;;24.30;82.00;;;24.48;51.50;98712.31;4953455;28;114536;-78
2023/09/09 01:43:16;;;;;;;;;;;24.20;82.60;;;24.42;51.48;98709.03;4950610;28;114047;-78
2023/09/09 01:45:48;;;;;;;;;;;24.20;82.80;;;24.39;51.65;98712.69;4929892;28;124809;-78
2023/09/09 01:48:14;;;;;;;;;;;24.20;83.10;;;24.37;51.76;98717.97;4922797;28;123597;-78
2023/09/09 01:50:45;;;;;;;;;;;24.20;83.50;;;24.33;51.76;98722.78;4932750;28;114320;-78
2023/09/09 01:53:14;;;;;;;;;;;24.10;83.70;;;24.31;51.77;98719.56;4911828;28;114159;-78
2023/09/09 01:55:41;;;;;;;;;;;24.10;84.10;;;24.29;51.93;98710.69;4939768;28;123974;-78
2023/09/09 01:58:09;;;;;;;;;;;24.10;84.50;;;24.24;52.48;98704.25;4930435;28;124394;-79
2023/09/09 02:00:35;;;;;;;;;;;24.00;84.80;;;24.22;52.22;98703.06;4929763;28;114432;-77
2023/09/09 02:03:04;;;;;;;;;;;24.00;85.00;;;24.21;52.52;98710.72;4938939;28;114106;-78
2023/09/09 02:05:33;;;;;;;;;;;24.00;85.40;;;24.20;52.37;98709.09;4936884;28;124222;-77
2023/09/09 02:08:02;;;;;;;;;;;24.00;85.70;;;24.18;52.53;98702.25;4935742;28;124030;-78
2023/09/09 02:10:28;;;;;;;;;;;24.00;85.90;;;24.16;52.57;98708.31;4934948;28;114303;-78
2023/09/09 02:12:57;;;;;;;;;;;23.90;86.20;;;24.14;52.71;98710.72;4946149;28;113689;-77
2023/09/09 02:15:25;;;;;;;;;;;23.90;86.50;;;24.13;52.89;98709.13;4933522;28;122459;-77
2023/09/09 02:17:52;;;;;;;;;;;23.90;86.70;;;24.10;52.84;98706.28;4947115;28;123894;-77
2023/09/09 02:20:18;;;;;;;;;;;23.90;86.90;;;24.09;53.00;98701.88;4940834;28;115245;-77
2023/09/09 02:22:44;;;;;;;;;;;23.80;87.00;;;24.07;52.89;98702.25;4940481;28;115136;-77
2023/09/09 02:25:11;;;;;;;;;;;23.80;87.30;;;24.06;53.07;98691.41;4949823;28;123444;-78
2023/09/09 02:27:37;;;;;;;;;;;23.80;87.50;;;24.05;53.17;98693.41;4938392;28;124313;-78
2023/09/09 02:30:04;;;;;;;;;;;23.80;87.60;;;24.03;53.08;98693.00;4938173;28;114445;-79
2023/09/09 02:32:30;;;;;;;;;;;23.80;87.80;;;24.02;53.19;98692.22;4930509;28;114005;-78
2023/09/09 02:34:57;;;;;;;;;;;23.70;87.90;;;24.01;53.30;98692.59;4920383;28;124066;-78
2023/09/09 02:37:28;;;;;;;;;;;23.70;88.00;;;23.99;53.10;98693.03;4941953;28;124070;-78
2023/09/09 02:39:57;;;;;;;;;;;23.70;88.20;;;23.97;53.22;98689.00;4946658;28;113522;-78
2023/09/09 02:42:24;;;;;;;;;;;23.70;88.40;;;23.95;53.44;98702.69;4939715;28;113772;-78
2023/09/09 02:44:52;;;;;;;;;;;23.70;88.60;;;23.93;53.25;98694.63;4954740;28;124505;-78
2023/09/09 02:47:21;;;;;;;;;;;23.60;88.70;;;23.92;53.59;98695.03;4930059;28;123242;-79
2023/09/09 02:49:52;;;;;;;;;;;23.60;88.80;;;23.90;53.52;98694.63;4942737;28;114269;-78
2023/09/09 02:52:18;;;;;;;;;;;23.60;89.00;;;23.87;53.65;98695.44;4943759;28;113910;-78
2023/09/09 02:54:45;;;;;;;;;;;23.60;89.30;;;23.83;53.70;98684.19;4944389;28;124412;-79
2023/09/09 02:57:13;;;;;;;;;;;23.60;89.40;;;23.79;53.68;98689.81;4945221;28;124139;-78
2023/09/09 02:59:39;;;;;;;;;;;23.60;89.60;;;23.78;53.93;98687.41;4951768;28;113654;-78
2023/09/09 03:02:06;;;;;;;;;;;23.50;89.70;;;23.75;53.92;98691.84;4934045;28;113699;-78
2023/09/09 03:04:32;;;;;;;;;;;23.50;89.80;;;23.73;53.98;98691.44;4944979;28;125894;-78
2023/09/09 03:06:58;;;;;;;;;;;23.50;90.00;;;23.70;54.12;98692.22;4933113;28;124600;-78
2023/09/09 03:09:25;;;;;;;;;;;23.50;90.00;;;23.68;54.32;98693.81;4951122;28;115386;-79
2023/09/09 03:11:53;;;;;;;;;;;23.40;90.10;;;23.66;54.45;98701.88;4947446;28;114837;-78
2023/09/09 03:14:20;;;;;;;;;;;23.40;90.40;;;23.64;54.12;98696.63;4933421;28;124125;-77
2023/09/09 03:16:46;;;;;;;;;;;23.40;90.20;;;23.62;54.28;98696.25;4935247;28;123901;-78
2023/09/09 03:19:12;;;;;;;;;;;23.40;90.20;;;23.62;53.98;98695.44;4938557;28;114572;-78
2023/09/09 03:21:41;;;;;;;;;;;23.40;90.20;;;23.58;53.96;98692.59;4933834;28;112621;-78
2023/09/09 03:24:07;;;;;;;;;;;23.30;90.10;;;23.56;53.81;98697.84;4948692;28;123101;-79
2023/09/09 03:26:33;;;;;;;;;;;23.30;90.10;;;23.54;53.85;98694.63;4942605;28;124129;-78
2023/09/09 03:29:02;;;;;;;;;;;23.30;90.00;;;23.51;53.82;98698.25;4932952;28;115020;-79
2023/09/09 03:31:28;;;;;;;;;;;23.30;90.00;;;23.49;53.65;98692.22;4944076;28;113985;-78
2023/09/09 03:33:55;;;;;;;;;;;23.20;90.00;;;23.46;53.75;98688.19;4929420;28;123367;-79
2023/09/09 03:36:21;;;;;;;;;;;23.20;90.00;;;23.44;53.77;98690.59;4956804;28;123840;-79
2023/09/09 03:38:47;;;;;;;;;;;23.20;90.00;;;23.43;53.75;98693.78;4932727;28;114459;-78
2023/09/09 03:41:13;;;;;;;;;;;23.20;90.00;;;23.40;53.61;98686.97;4952129;28;114322;-78
2023/09/09 03:43:40;;;;;;;;;;;23.20;90.00;;;23.38;53.60;98695.03;4938584;28;123980;-77
2023/09/09 03:46:06;;;;;;;;;;;23.10;90.00;;;23.36;53.67;98695.41;4935042;28;123906;-77
2023/09/09 03:48:32;;;;;;;;;;;23.10;90.00;;;23.33;53.70;98695.41;4965404;28;114309;-79
2023/09/09 03:50:59;;;;;;;;;;;23.10;90.00;;;23.31;53.54;98687.34;4933719;28;113129;-79
2023/09/09 03:53:26;;;;;;;;;;;23.10;90.00;;;23.29;53.71;98688.94;4941564;28;124059;-78
2023/09/09 03:55:55;;;;;;;;;;;23.00;90.10;;;23.22;53.76;98692.59;4919236;28;124530;-78
2023/09/09 03:58:23;;;;;;;;;;;23.00;90.10;;;23.20;54.02;98688.53;4929934;28;115378;-77
2023/09/09 04:01:04;;;;;;;;;;;23.00;90.10;;;23.18;54.10;98694.56;4931115;28;114558;-77
2023/09/09 04:03:33;;;;;;;;;;;22.90;90.20;;;23.18;54.00;98693.78;4953829;28;124289;-79
2023/09/09 04:06:06;;;;;;;;;;;22.90;90.20;;;23.16;53.99;98697.00;4963696;28;123756;-79
2023/09/09 04:08:39;;;;;;;;;;;22.90;90.30;;;23.14;54.00;98699.41;4939229;28;114564;-78
2023/09/09 04:11:05;;;;;;;;;;;22.90;90.40;;;23.12;54.31;98701.81;4946372;28;113790;-78
2023/09/09 04:13:32;;;;;;;;;;;22.90;90.50;;;23.11;54.29;98700.22;4932188;28;124153;-79
2023/09/09 04:16:01;;;;;;;;;;;22.90;90.50;;;23.10;54.44;98696.56;4961891;28;123941;-79
2023/09/09 04:18:28;;;;;;;;;;;22.80;90.60;;;23.11;54.58;98705.84;4933017;28;113410;-79
2023/09/09 04:20:54;;;;;;;;;;;22.80;90.70;;;23.09;54.76;98708.25;4927373;28;114402;-79
2023/09/09 04:23:20;;;;;;;;;;;22.80;90.80;;;23.08;54.85;98703.84;4948630;28;124547;-78
2023/09/09 04:25:52;;;;;;;;;;;22.80;90.80;;;23.07;54.69;98699.38;4927153;28;122741;-79
2023/09/09 04:28:18;;;;;;;;;;;22.80;90.90;;;22.94;55.55;98705.38;4932322;28;113552;-78
2023/09/09 04:30:46;;;;;;;;;;;22.70;91.40;;;22.84;55.99;98708.97;4938464;28;113667;-77
2023/09/09 04:33:16;;;;;;;;;;;22.70;91.40;;;22.81;55.95;98708.94;4939102;28;124224;-79
2023/09/09 04:35:42;;;;;;;;;;;22.60;91.50;;;22.79;56.01;98712.16;4955012;28;124108;-79
2023/09/09 04:38:09;;;;;;;;;;;22.60;91.50;;;22.78;56.03;98704.91;4946704;28;114612;-78
2023/09/09 04:40:39;;;;;;;;;;;22.50;91.60;;;22.80;56.01;98707.31;4917981;28;113148;-78
2023/09/09 04:43:05;;;;;;;;;;;22.50;91.70;;;22.81;56.16;98709.75;4965271;28;124362;-79
2023/09/09 04:45:31;;;;;;;;;;;22.50;91.80;;;22.81;56.08;98709.75;4953482;28;123703;-79
2023/09/09 04:48:05;;;;;;;;;;;22.50;91.80;;;22.80;56.25;98707.31;4940618;28;115254;-79
2023/09/09 04:50:33;;;;;;;;;;;22.50;91.90;;;22.79;56.35;98705.72;4940456;28;114746;-78
2023/09/09 04:53:02;;;;;;;;;;;22.50;91.90;;;22.78;56.24;98707.72;4929667;28;124292;-77
2023/09/09 04:55:31;;;;;;;;;;;22.50;91.90;;;22.76;56.37;98710.13;4918285;28;123619;-78
2023/09/09 04:58:07;;;;;;;;;;;22.50;92.00;;;22.75;56.09;98708.50;4940920;28;113651;-79
2023/09/09 05:00:42;;;;;;;;;;;22.50;92.30;;;22.74;56.31;98715.34;4931923;28;114011;-78
2023/09/09 05:03:10;;;;;;;;;;;22.50;92.10;;;22.74;56.50;98709.72;4923184;28;123896;-78
2023/09/09 05:05:37;;;;;;;;;;;22.50;92.10;;;22.75;56.25;98716.97;4947566;28;123262;-80
2023/09/09 05:08:04;;;;;;;;;;;22.50;92.20;;;22.76;56.22;98720.59;4926259;28;113838;-77
2023/09/09 05:10:32;;;;;;;;;;;22.50;92.20;;;22.76;56.49;98718.59;4919063;28;113686;-80
2023/09/09 05:13:03;;;;;;;;;;;22.50;92.20;;;22.76;56.47;98718.59;4934045;28;124812;-79
2023/09/09 05:15:30;;;;;;;;;;;22.50;92.30;;;22.76;56.13;98723.41;4944848;28;124061;-77
2023/09/09 05:18:01;;;;;;;;;;;22.40;92.30;;;22.76;56.56;98721.41;4936410;28;114068;-78
2023/09/09 05:20:27;;;;;;;;;;;22.40;92.30;;;22.76;56.47;98718.59;4948393;28;113615;-77
2023/09/09 05:22:56;;;;;;;;;;;22.40;92.30;;;22.75;56.38;98716.97;4930022;28;124876;-77
2023/09/09 05:25:28;;;;;;;;;;;22.50;92.40;;;22.75;56.37;98722.59;4935400;28;124024;-78
2023/09/09 05:27:54;;;;;;;;;;;22.40;92.30;;;22.76;56.32;98724.22;4947818;28;114647;-76
2023/09/09 05:30:21;;;;;;;;;;;22.40;92.30;;;22.76;56.05;98726.25;4934780;28;113942;-77
2023/09/09 05:32:52;;;;;;;;;;;22.40;92.20;;;22.74;55.61;98725.81;4920612;28;123574;-78
2023/09/09 05:38:41;;;;;;;;;;;22.40;92.00;;;22.66;55.67;98736.25;4939667;28;117951;-78
2023/09/09 05:41:08;;;;;;;;;;;22.40;92.00;;;22.66;55.38;98725.78;4931534;28;115297;-77
2023/09/09 05:43:34;;;;;;;;;;;22.40;92.00;;;22.71;55.62;98733.06;4932766;28;124262;-76
2023/09/09 05:46:00;;;;;;;;;;;22.40;92.00;;;22.75;55.82;98738.69;4941855;28;123999;-76
2023/09/09 05:48:30;;;;;;;;;;;22.40;92.00;;;22.75;55.62;98733.84;4936905;28;114307;-76
2023/09/09 05:50:56;;;;;;;;;;;22.40;92.10;;;22.75;55.63;98739.50;4933558;28;113547;-78
2023/09/09 05:53:24;;;;;;;;;;;22.40;92.00;;;22.75;55.40;98736.69;4913982;28;124349;-78
2023/09/09 05:55:53;;;;;;;;;;;22.40;92.10;;;22.76;55.44;98741.13;4931473;28;124507;-78
2023/09/09 05:58:20;;;;;;;;;;;22.40;92.10;;;22.79;55.54;98747.97;4920776;28;113639;-77
2023/09/09 06:00:46;;;;;;;;;;;22.50;92.10;;;22.82;55.62;98745.16;4936991;28;113622;-78
2023/09/09 06:03:12;;;;;;;;;;;22.50;92.10;;;22.85;55.31;98744.38;4926750;28;123125;-78
2023/09/09 06:05:44;;;;;;;;;;;22.50;92.10;;;22.90;55.46;98746.81;4955791;28;123732;-78
2023/09/09 06:08:12;;;;;;;;;;;22.50;92.10;;;22.97;55.29;98740.44;4931030;28;113237;-79
2023/09/09 06:10:44;;;;;;;;;;;22.60;92.20;;;23.04;55.03;98751.72;4944832;28;114349;-78
2023/09/09 06:13:12;;;;;;;;;;;23.90;92.80;;;23.09;55.04;98756.97;4929050;28;124177;-79
2023/09/09 06:15:47;;;;;;;;;;;22.70;92.20;;;23.12;55.35;98750.53;4920852;28;124210;-77
2023/09/09 06:18:13;;;;;;;;;;;22.70;92.20;;;23.17;55.26;98754.97;4938250;28;115251;-77
2023/09/09 06:20:47;;;;;;;;;;;22.70;92.20;;;23.24;55.03;98754.19;4940279;28;113921;-77
2023/09/09 06:23:20;;;;;;;;;;;22.80;92.20;;;23.30;54.97;98750.59;4933808;28;124212;-77
2023/09/09 06:25:54;;;;;;;;;;;22.90;92.20;;;23.36;54.98;98748.97;4940462;28;123990;-77
2023/09/09 06:28:20;;;;;;;;;;;22.90;92.20;;;23.41;54.82;98747.78;4921415;28;115531;-77
2023/09/09 06:30:46;;;;;;;;;;;22.90;92.50;;;23.47;54.82;98757.47;4922900;28;114571;-77
2023/09/09 06:33:20;;;;;;;;;;;23.00;92.20;;;23.53;54.84;98749.41;4933575;28;125276;-78
2023/09/09 06:35:48;;;;;;;;;;;23.10;92.20;;;23.57;54.46;98761.50;4950926;28;124633;-77
2023/09/09 06:38:20;;;;;;;;;;;23.10;92.20;;;23.56;54.82;98754.25;4965605;28;114559;-78
2023/09/09 06:40:47;;;;;;;;;;;23.10;92.10;;;23.60;54.67;98761.50;4957889;28;113219;-77
2023/09/09 06:43:25;;;;;;;;;;;23.20;92.10;;;23.67;54.75;98766.38;4927369;28;124792;-77
2023/09/09 06:45:55;;;;;;;;;;;23.20;92.10;;;23.74;54.31;98760.75;4943145;28;123668;-77
2023/09/09 06:48:21;;;;;;;;;;;23.30;92.20;;;23.85;54.40;98763.56;4949733;28;114491;-77
2023/09/09 06:50:55;;;;;;;;;;;23.40;92.10;;;23.95;54.13;98761.97;4931868;28;114364;-76
2023/09/09 06:53:24;;;;;;;;;;;23.40;92.10;;;23.99;53.96;98765.59;4938520;28;124304;-77
2023/09/09 06:55:53;;;;;;;;;;;23.50;92.10;;;24.02;54.18;98765.59;4943565;28;123967;-77
2023/09/09 06:58:19;;;;;;;;;;;23.50;92.10;;;24.05;53.99;98769.63;4965247;28;113980;-77
2023/09/09 07:00:52;;;;;;;;;;;23.50;92.10;;;24.08;54.19;98776.47;4940845;28;114057;-77
2023/09/09 07:03:19;;;;;;;;;;;23.60;92.10;;;24.13;53.85;98773.25;4932868;28;124874;-77
2023/09/09 07:05:45;;;;;;;;;;;23.60;92.10;;;24.13;54.39;98773.25;4946980;28;124257;-76
2023/09/09 07:08:17;;;;;;;;;;;23.60;92.10;;;24.16;54.18;98780.91;4957163;28;114266;-76
2023/09/09 07:10:53;;;;;;;;;;;23.60;92.10;;;24.18;53.96;98775.66;4924801;28;113573;-76
2023/09/09 07:13:23;;;;;;;;;;;23.70;92.10;;;24.20;54.05;98784.53;4929426;28;124559;-77
2023/09/09 07:15:53;;;;;;;;;;;23.70;92.10;;;24.26;53.77;98774.47;4928322;28;124588;-77
2023/09/09 07:18:20;;;;;;;;;;;23.70;92.10;;;24.34;53.89;98784.53;4964021;28;116604;-77
2023/09/09 07:20:46;;;;;;;;;;;23.80;92.10;;;24.41;53.61;98780.88;4946474;28;114906;-77
2023/09/09 07:23:17;;;;;;;;;;;23.90;92.10;;;24.49;53.64;98776.06;4934129;28;124304;-77
2023/09/09 07:25:46;;;;;;;;;;;23.90;92.00;;;24.53;53.43;98777.66;4954675;28;122661;-77
2023/09/09 07:28:18;;;;;;;;;;;24.00;92.00;;;24.62;53.33;98785.72;4947881;28;113916;-77
2023/09/09 07:30:44;;;;;;;;;;;24.00;92.00;;;24.68;53.09;98779.22;4931272;28;113810;-77
2023/09/09 07:33:11;;;;;;;;;;;24.10;91.90;;;24.74;52.79;98782.44;4926088;28;123740;-76
2023/09/09 07:35:39;;;;;;;;;;;24.20;91.90;;;24.77;52.75;98778.81;4936942;28;122967;-77
2023/09/09 07:38:06;;;;;;;;;;;24.20;91.80;;;24.81;52.75;98778.78;4927293;28;114303;-76
2023/09/09 07:40:39;;;;;;;;;;;24.20;91.80;;;24.91;52.82;98786.44;4956766;28;113825;-77
2023/09/09 07:43:08;;;;;;;;;;;24.30;91.80;;;25.02;52.74;98778.72;4961385;28;123690;-77
2023/09/09 07:45:34;;;;;;;;;;;24.40;91.70;;;25.12;52.16;98775.03;4932731;28;123955;-77
2023/09/09 07:48:08;;;;;;;;;;;24.50;91.60;;;25.21;52.06;98773.81;4930883;28;114253;-77
2023/09/09 07:50:34;;;;;;;;;;;24.60;91.50;;;25.24;51.84;98779.44;4944497;28;113495;-76
2023/09/09 07:53:04;;;;;;;;;;;24.60;91.40;;;25.25;52.31;98777.41;4934261;28;124101;-77
2023/09/09 07:55:30;;;;;;;;;;;24.60;91.40;;;25.29;51.97;98769.72;4949488;28;123827;-77
2023/09/09 07:57:56;;;;;;;;;;;24.70;91.40;;;25.37;51.81;98776.94;4932273;28;114419;-77
2023/09/09 08:00:22;;;;;;;;;;;24.70;91.30;;;25.43;51.55;98780.13;4919877;28;112965;-77
2023/09/09 08:02:51;;;;;;;;;;;24.80;91.20;;;25.47;51.47;98790.22;4930417;28;124596;-77
2023/09/09 08:05:35;;;;;;;;;;;24.90;91.20;;;25.54;51.88;98795.03;4964660;28;124048;-77
2023/09/09 08:08:08;;;;;;;;;;;24.90;91.20;;;25.60;51.60;98786.91;4944320;28;114829;-77
2023/09/09 08:10:34;;;;;;;;;;;24.90;91.00;;;25.63;51.03;98791.72;4944141;28;114420;-76
2023/09/09 08:13:04;;;;;;;;;;;25.00;91.00;;;25.67;50.84;98795.34;4944951;28;125375;-77
2023/09/09 08:15:30;;;;;;;;;;;25.10;90.90;;;25.68;50.87;98792.09;4942254;28;124058;-77
2023/09/09 08:17:57;;;;;;;;;;;25.10;90.70;;;25.72;51.17;98790.06;4934590;28;114594;-77
2023/09/09 08:20:30;;;;;;;;;;;25.20;90.70;;;25.80;51.25;98793.66;4930873;28;112788;-77
2023/09/09 08:23:06;;;;;;;;;;;25.20;90.70;;;25.87;51.10;98798.47;4933385;28;124388;-77
2023/09/09 08:25:32;;;;;;;;;;;25.30;90.70;;;25.95;50.78;98798.03;4941339;28;124321;-76
2023/09/09 08:28:01;;;;;;;;;;;25.30;90.70;;;26.06;50.70;98799.94;4960489;28;114332;-77
2023/09/09 08:30:33;;;;;;;;;;;25.50;90.60;;;26.14;50.67;98798.66;4953837;28;113571;-77
2023/09/09 08:32:59;;;;;;;;;;;25.50;90.60;;;26.21;50.49;98798.59;4931915;28;124213;-77
2023/09/09 08:35:32;;;;;;;;;;;25.60;90.50;;;26.27;50.30;98796.91;4940741;28;123416;-76
2023/09/09 08:37:59;;;;;;;;;;;25.70;90.40;;;26.29;50.14;98790.84;4953399;28;114659;-77
2023/09/09 08:40:34;;;;;;;;;;;25.70;90.20;;;26.32;49.66;98793.63;4943050;28;113941;-76
2023/09/09 08:43:21;;;;;;;;;;;25.80;90.10;;;26.32;49.76;98804.97;4940281;28;124213;-76
2023/09/09 08:45:53;;;;;;;;;;;25.80;90.10;;;26.37;49.96;98801.69;4959845;28;123458;-76
2023/09/09 08:48:23;;;;;;;;;;;25.80;90.10;;;26.45;49.93;98797.56;4942937;28;114714;-76
2023/09/09 08:50:59;;;;;;;;;;;25.90;90.10;;;26.56;49.97;98791.81;4938038;28;113748;-77
2023/09/09 08:53:31;;;;;;;;;;;26.00;90.10;;;26.64;49.71;98786.88;4923026;28;124024;-76
2023/09/09 08:55:58;;;;;;;;;;;26.10;90.10;;;26.68;49.94;98790.50;4924699;28;123869;-76
2023/09/09 08:58:32;;;;;;;;;;;26.10;90.10;;;26.74;49.70;98791.63;4925046;28;115389;-76
2023/09/09 09:00:59;;;;;;;;;;;26.20;90.00;;;26.80;49.49;98792.75;4954924;28;114086;-76
2023/09/09 09:03:29;;;;;;;;;;;26.30;89.70;;;26.85;49.35;98786.63;4955232;28;123432;-76
2023/09/09 09:05:58;;;;;;;;;;;26.30;89.50;;;26.92;48.98;98793.44;4921211;28;123949;-76
2023/09/09 09:08:31;;;;;;;;;;;26.40;89.50;;;27.00;49.27;98792.94;4924984;28;114993;-76
2023/09/09 09:10:58;;;;;;;;;;;26.50;89.50;;;27.07;48.81;98792.84;4942258;28;112796;-76
2023/09/09 09:13:31;;;;;;;;;;;26.50;89.30;;;27.13;49.00;98790.34;4927249;28;124232;-76
2023/09/09 09:16:06;;;;;;;;;;;26.50;89.10;;;27.17;48.72;98785.47;4930658;28;124026;-76
2023/09/09 09:18:34;;;;;;;;;;;26.60;89.00;;;27.21;48.65;98779.72;4931539;28;114351;-76
2023/09/09 09:21:10;;;;;;;;;;;26.70;88.80;;;27.25;48.47;98789.81;4945718;28;112870;-76
2023/09/09 09:23:43;;;;;;;;;;;26.70;88.60;;;27.30;48.45;98795.03;4956818;28;124292;-76
2023/09/09 09:26:29;;;;;;;;;;;26.80;88.50;;;27.37;48.58;98790.47;4926908;28;123352;-76
2023/09/09 09:28:56;;;;;;;;;;;26.80;88.30;;;27.45;48.14;98777.78;4944236;28;114776;-76
2023/09/09 09:31:28;;;;;;;;;;;26.90;88.10;;;27.54;47.86;98778.06;4957502;28;113501;-76
2023/09/09 09:33:59;;;;;;;;;;;27.10;88.10;;;27.61;47.95;98777.94;4928499;28;124344;-76
2023/09/09 09:36:28;;;;;;;;;;;27.10;87.80;;;27.65;47.99;98775.88;4935964;28;124634;-77
2023/09/09 09:38:56;;;;;;;;;;;27.10;87.70;;;27.70;47.75;98778.22;4938853;28;114421;-76
2023/09/09 09:41:22;;;;;;;;;;;27.20;87.60;;;27.74;47.55;98770.44;4949654;28;112835;-76
2023/09/09 09:43:58;;;;;;;;;;;27.20;87.40;;;27.79;47.37;98766.34;4930231;28;124489;-76
2023/09/09 09:46:24;;;;;;;;;;;27.30;86.90;;;27.81;47.04;98772.41;4932352;28;123001;-76
2023/09/09 09:48:55;;;;;;;;;;;27.30;86.70;;;27.84;47.27;98770.75;4927316;28;115320;-76
2023/09/09 09:51:22;;;;;;;;;;;27.30;86.50;;;27.89;47.05;98761.75;4910919;28;115042;-76
2023/09/09 09:53:48;;;;;;;;;;;27.40;86.40;;;27.95;47.06;98774.22;4930481;28;124355;-76
2023/09/09 09:56:18;;;;;;;;;;;27.50;86.10;;;28.00;46.91;98767.25;4930952;28;123931;-76
2023/09/09 09:58:46;;;;;;;;;;;27.50;86.10;;;28.04;46.60;98763.09;4947702;28;113297;-76
2023/09/09 10:01:13;;;;;;;;;;;27.60;85.90;;;28.10;46.50;98764.22;4925839;28;113593;-76
2023/09/09 10:03:57;;;;;;;;;;;27.60;85.40;;;28.11;46.49;98765.81;4927913;28;123261;-76
2023/09/09 10:06:32;;;;;;;;;;;27.60;85.20;;;28.16;45.74;98771.03;4935067;28;123072;-76
2023/09/09 10:09:31;;;;;;;;;;;27.60;84.80;;;28.18;46.16;98768.56;4924911;28;114879;-76
2023/09/09 10:12:05;;;;;;;;;;;27.70;84.60;;;28.27;46.01;98772.88;4930631;28;113780;-75
2023/09/09 10:14:35;;;;;;;;;;;27.80;84.50;;;28.32;45.67;98766.69;4949295;28;124405;-76
2023/09/09 10:17:07;;;;;;;;;;;27.80;84.20;;;28.38;45.61;98764.97;4938631;28;124094;-75
2023/09/09 10:19:43;;;;;;;;;;;27.90;84.10;;;28.46;45.35;98763.63;4927207;28;115035;-76
2023/09/09 10:22:10;;;;;;;;;;;27.90;83.80;;;28.53;44.91;98760.66;4953218;28;114218;-76
2023/09/09 10:24:43;;;;;;;;;;;28.00;83.30;;;28.60;44.55;98763.34;4954112;28;124835;-75
2023/09/09 10:27:10;;;;;;;;;;;28.00;82.70;;;28.65;44.61;98764.88;4928677;28;123982;-75
2023/09/09 10:29:41;;;;;;;;;;;28.10;82.60;;;28.70;44.39;98757.88;4923871;28;115065;-77
2023/09/09 10:32:08;;;;;;;;;;;28.10;82.10;;;28.77;44.01;98754.88;4959929;28;114083;-75
2023/09/09 10:34:45;;;;;;;;;;;28.20;81.80;;;28.81;44.06;98747.91;4962610;28;124242;-77
2023/09/09 10:37:16;;;;;;;;;;;28.30;81.70;;;28.92;44.03;98753.34;4951442;28;123155;-76
2023/09/09 10:39:45;;;;;;;;;;;28.40;81.60;;;29.00;43.76;98749.13;4951995;28;114359;-76
2023/09/09 10:42:19;;;;;;;;;;;28.40;82.00;;;29.06;43.54;98738.84;4950113;28;114445;-75
2023/09/09 10:44:54;;;;;;;;;;;28.50;80.90;;;29.16;43.48;98744.78;4932074;28;124249;-78
2023/09/09 10:47:20;;;;;;;;;;;28.60;80.50;;;29.25;43.33;98742.13;4956157;28;123964;-80
2023/09/09 10:49:46;;;;;;;;;;;28.70;80.40;;;29.34;43.42;98750.88;4945254;28;114657;-78
2023/09/09 10:52:32;;;;;;;;;;;28.80;80.20;;;29.42;42.81;98752.31;4941353;28;113585;-78
2023/09/09 10:55:19;;;;;;;;;;;28.90;80.00;;;29.52;42.22;98748.38;4930799;28;124340;-77
2023/09/09 10:57:56;;;;;;;;;;;29.00;79.50;;;29.61;42.11;98750.66;4921716;28;124005;-77
2023/09/09 11:00:45;;;;;;;;;;;29.10;78.90;;;29.69;42.44;98760.66;4957950;28;114572;-78
2023/09/09 11:03:23;;;;;;;;;;;29.20;78.80;;;29.79;41.42;98753.09;4944301;28;114387;-77
2023/09/09 11:06:06;;;;;;;;;;;29.20;78.00;;;29.89;41.12;98757.72;4912607;28;124153;-78
2023/09/09 11:08:40;;;;;;;;;;;29.30;77.70;;;29.98;41.14;98759.94;4940426;28;123619;-77
2023/09/09 11:11:19;;;;;;;;;;;29.40;76.70;;;30.07;40.85;98751.59;4937375;28;114408;-77
2023/09/09 11:13:54;;;;;;;;;;;29.50;76.20;;;30.20;40.02;98748.81;4953181;28;114162;-78
2023/09/09 11:16:39;;;;;;;;;;;29.60;75.70;;;30.31;39.95;98749.34;4946281;28;123795;-77
2023/09/09 11:19:10;;;;;;;;;;;29.70;74.90;;;30.44;39.61;98745.75;4945292;28;123295;-77
2023/09/09 11:21:39;;;;;;;;;;;29.90;74.60;;;30.57;38.50;98735.22;4945047;28;115072;-78
2023/09/09 11:24:06;;;;;;;;;;;30.00;73.20;;;30.63;38.34;98738.31;4939314;28;113656;-78